createdAt,value
2018-06-04T00:01:28.288Z,31.87
2018-06-04T00:03:59.686Z,30.54
2018-06-04T00:06:30.261Z,30.68
2018-06-04T00:09:01.655Z,31.80
2018-06-04T00:11:32.394Z,31.30
2018-06-04T00:14:03.638Z,30.70
2018-06-04T00:16:34.387Z,28.15
2018-06-04T00:19:05.422Z,31.23
2018-06-04T00:21:36.614Z,32.70
2018-06-04T00:24:07.318Z,27.70
2018-06-04T00:26:38.588Z,29.18
2018-06-04T00:29:09.709Z,30.90
2018-06-04T00:31:40.882Z,28.60
2018-06-04T00:34:11.414Z,28.27
2018-06-04T00:36:42.261Z,26.73
2018-06-04T00:39:13.670Z,28.20
2018-06-04T00:41:44.254Z,26.97
2018-06-04T00:44:15.660Z,32.32
2018-06-04T00:46:50.967Z,30.43
2018-06-04T00:49:20.866Z,28.93
2018-06-04T00:51:50.630Z,32.37
2018-06-04T00:54:20.447Z,30.55
2018-06-04T00:56:50.270Z,32.50
2018-06-04T00:59:21.930Z,30.58
2018-06-04T01:01:52.357Z,34.23
2018-06-04T01:04:23.609Z,30.08
2018-06-04T01:06:54.319Z,29.85
2018-06-04T01:09:25.665Z,30.24
2018-06-04T01:11:56.353Z,28.87
2018-06-04T01:14:27.657Z,32.16
2018-06-04T01:16:58.678Z,34.15
2018-06-04T01:19:29.374Z,30.75
2018-06-04T01:21:59.570Z,32.17
2018-06-04T01:24:30.305Z,30.70
2018-06-04T01:27:00.651Z,29.70
2018-06-04T01:29:31.390Z,30.45
2018-06-04T01:32:01.876Z,29.90
2018-06-04T01:34:32.598Z,34.15
2018-06-04T01:37:03.272Z,34.08
2018-06-04T01:39:34.638Z,31.96
2018-06-04T01:42:05.386Z,33.65
2018-06-04T01:44:36.651Z,34.36
2018-06-04T01:47:07.362Z,31.57
2018-06-04T01:49:38.617Z,33.68
2018-06-04T01:52:09.297Z,32.25
2018-06-04T01:54:40.714Z,33.42
2018-06-04T01:57:11.325Z,31.48
2018-06-04T01:59:42.694Z,31.20
2018-06-04T02:02:13.307Z,33.15
2018-06-04T02:04:44.767Z,34.32
2018-06-04T02:07:15.310Z,32.35
2018-06-04T02:09:46.616Z,32.56
2018-06-04T02:12:17.274Z,32.58
2018-06-04T02:14:48.671Z,32.42
2018-06-04T02:17:18.424Z,35.80
2018-06-04T02:19:49.701Z,27.70
2018-06-04T02:22:20.315Z,32.83
2018-06-04T02:24:51.618Z,28.98
2018-06-04T02:27:22.350Z,31.87
2018-06-04T02:29:53.630Z,35.52
2018-06-04T02:32:23.381Z,33.63
2018-06-04T02:34:53.320Z,33.60
2018-06-04T02:37:24.754Z,32.88
2018-06-04T02:39:55.350Z,33.42
2018-06-04T02:42:27.018Z,33.02
2018-06-04T02:44:57.508Z,30.40
2018-06-04T02:47:28.343Z,33.53
2018-06-04T02:49:59.690Z,37.18
2018-06-04T02:52:30.338Z,38.67
2018-06-04T02:55:01.676Z,32.88
2018-06-04T02:57:32.271Z,32.95
2018-06-04T03:00:03.674Z,31.84
2018-06-04T03:02:34.494Z,35.28
2018-06-04T03:05:05.515Z,34.73
2018-06-04T03:07:36.279Z,34.48
2018-06-04T03:10:07.659Z,32.98
2018-06-04T03:12:38.338Z,33.85
2018-06-04T03:15:09.700Z,27.76
2018-06-04T03:17:40.362Z,31.27
2018-06-04T03:20:11.634Z,34.54
2018-06-04T03:22:42.364Z,35.70
2018-06-04T03:25:13.603Z,35.98
2018-06-04T03:27:44.294Z,31.75
2018-06-04T03:30:15.567Z,31.26
2018-06-04T03:32:45.388Z,33.33
2018-06-04T03:35:16.658Z,33.36
2018-06-04T03:37:47.322Z,34.18
2018-06-04T03:40:18.706Z,34.00
2018-06-04T03:42:49.389Z,33.15
2018-06-04T03:45:20.950Z,33.58
2018-06-04T03:47:51.569Z,37.75
2018-06-04T03:50:22.352Z,31.12
2018-06-04T03:52:57.638Z,33.12
2018-06-04T03:55:28.010Z,31.62
2018-06-04T03:57:57.803Z,30.50
2018-06-04T04:00:28.239Z,30.37
2018-06-04T04:02:58.157Z,36.63
2018-06-04T04:05:28.786Z,36.37
2018-06-04T04:07:58.591Z,39.50
2018-06-04T04:10:29.325Z,31.05
2018-06-04T04:13:00.624Z,33.98
2018-06-04T04:15:31.303Z,30.95
2018-06-04T04:18:01.779Z,35.08
2018-06-04T04:20:32.414Z,35.83
2018-06-04T04:23:03.630Z,35.70
2018-06-04T04:25:34.406Z,32.98
2018-06-04T04:28:05.372Z,33.38
2018-06-04T04:30:36.688Z,37.46
2018-06-04T04:33:07.394Z,34.10
2018-06-04T04:35:38.708Z,36.06
2018-06-04T04:38:09.261Z,33.30
2018-06-04T04:40:40.668Z,36.36
2018-06-04T04:43:11.358Z,33.45
2018-06-04T04:45:42.646Z,34.00
2018-06-04T04:48:13.369Z,38.78
2018-06-04T04:50:44.611Z,34.62
2018-06-04T04:53:15.449Z,39.00
2018-06-04T04:55:46.374Z,34.30
2018-06-04T04:58:16.241Z,38.05
2018-06-04T05:00:47.762Z,37.08
2018-06-04T05:03:18.273Z,35.85
2018-06-04T05:05:49.694Z,31.50
2018-06-04T05:08:20.246Z,38.40
2018-06-04T05:10:51.658Z,33.56
2018-06-04T05:13:22.375Z,32.83
2018-06-04T05:15:53.693Z,36.00
2018-06-04T05:18:24.335Z,35.10
2018-06-04T05:20:55.605Z,37.82
2018-06-04T05:23:26.323Z,33.92
2018-06-04T05:25:57.602Z,34.20
2018-06-04T05:28:28.265Z,31.52
2018-06-04T05:30:59.706Z,31.76
2018-06-04T05:33:30.246Z,28.67
2018-06-04T05:36:01.707Z,29.18
2018-06-04T05:38:32.276Z,31.97
2018-06-04T05:41:03.715Z,31.30
2018-06-04T05:43:34.289Z,29.85
2018-06-04T05:46:05.748Z,24.74
2018-06-04T05:48:36.298Z,28.05
2018-06-04T05:51:07.743Z,29.06
2018-06-04T05:53:38.385Z,28.17
2018-06-04T05:56:08.353Z,24.60
2018-06-04T05:58:39.712Z,26.14
2018-06-04T06:01:10.526Z,28.47
2018-06-04T06:03:41.418Z,23.15
2018-06-04T06:06:12.724Z,22.84
2018-06-04T06:08:43.865Z,22.02
2018-06-04T06:11:14.513Z,23.20
2018-06-04T06:13:45.406Z,22.85
2018-06-04T06:16:15.374Z,20.20
2018-06-04T06:18:46.674Z,23.64
2018-06-04T06:21:17.477Z,21.55
2018-06-04T06:23:48.737Z,20.32
2018-06-04T06:26:19.621Z,24.18
2018-06-04T06:28:54.953Z,21.17
2018-06-04T06:31:24.811Z,18.03
2018-06-04T06:33:55.113Z,17.85
2018-06-04T06:36:24.946Z,19.92
2018-06-04T06:38:55.286Z,17.77
2018-06-04T06:41:25.112Z,19.07
2018-06-04T06:43:55.646Z,17.48
2018-06-04T06:46:26.351Z,16.50
2018-06-04T06:48:57.649Z,16.68
2018-06-04T06:51:28.410Z,16.35
2018-06-04T06:53:59.648Z,21.60
2018-06-04T06:56:30.313Z,18.02
2018-06-04T06:59:01.689Z,17.72
2018-06-04T07:01:31.564Z,17.30
2018-06-04T07:04:02.383Z,18.35
2018-06-04T07:06:33.748Z,16.54
2018-06-04T07:09:04.738Z,16.77
2018-06-04T07:11:35.473Z,14.20
2018-06-04T07:14:06.581Z,14.60
2018-06-04T07:16:37.317Z,14.53
2018-06-04T07:19:08.665Z,11.84
2018-06-04T07:21:39.343Z,13.45
2018-06-04T07:24:10.609Z,13.58
2018-06-04T07:26:41.391Z,13.15
2018-06-04T07:29:12.286Z,16.45
2018-06-04T07:31:51.934Z,15.40
2018-06-04T07:34:21.849Z,12.37
2018-06-04T07:36:51.677Z,12.85
2018-06-04T07:39:22.042Z,14.45
2018-06-04T07:41:51.934Z,12.80
2018-06-04T07:44:21.844Z,11.97
2018-06-04T07:46:51.837Z,11.33
2018-06-04T07:49:21.582Z,11.73
2018-06-04T07:51:51.363Z,10.70
2018-06-04T07:54:21.561Z,10.77
2018-06-04T07:56:52.343Z,12.25
2018-06-04T07:59:23.663Z,11.52
2018-06-04T08:01:54.379Z,10.98
2018-06-04T08:04:25.620Z,10.86
2018-06-04T08:06:56.387Z,9.53
2018-06-04T08:09:27.244Z,11.40
2018-06-04T08:11:58.690Z,11.88
2018-06-04T08:14:29.526Z,17.55
2018-06-04T08:17:00.345Z,9.88
2018-06-04T08:19:31.642Z,11.14
2018-06-04T08:22:02.365Z,10.98
2018-06-04T08:24:33.698Z,9.90
2018-06-04T08:27:04.322Z,11.95
2018-06-04T08:29:35.626Z,11.06
2018-06-04T08:32:06.103Z,15.42
2018-06-04T08:34:36.545Z,10.08
2018-06-04T08:37:07.381Z,11.43
2018-06-04T08:39:38.238Z,9.88
2018-06-04T08:42:09.645Z,11.08
2018-06-04T08:44:40.234Z,8.53
2018-06-04T08:47:11.629Z,7.86
2018-06-04T08:49:42.332Z,11.88
2018-06-04T08:52:12.262Z,10.90
2018-06-04T08:54:43.599Z,9.74
2018-06-04T08:57:14.303Z,12.10
2018-06-04T08:59:45.610Z,6.32
2018-06-04T09:02:16.358Z,10.70
2018-06-04T09:04:53.578Z,6.64
2018-06-04T09:07:23.373Z,6.63
2018-06-04T09:09:53.131Z,8.00
2018-06-04T09:12:23.378Z,5.78
2018-06-04T09:14:53.126Z,6.23
2018-06-04T09:17:23.198Z,8.00
2018-06-04T09:19:53.530Z,7.14
2018-06-04T09:22:24.673Z,7.10
2018-06-04T09:24:55.305Z,7.85
2018-06-04T09:27:26.561Z,6.18
2018-06-04T09:29:57.293Z,7.22
2018-06-04T09:32:28.554Z,8.60
2018-06-04T09:34:59.266Z,7.20
2018-06-04T09:37:30.634Z,6.90
2018-06-04T09:40:01.418Z,7.30
2018-06-04T09:42:32.437Z,6.80
2018-06-04T09:45:03.557Z,7.10
2018-06-04T09:47:34.403Z,11.55
2018-06-04T09:50:05.298Z,7.72
2018-06-04T09:52:35.517Z,6.43
2018-06-04T09:55:06.302Z,9.08
2018-06-04T09:57:37.796Z,6.80
2018-06-04T10:00:08.421Z,7.22
2018-06-04T10:02:39.254Z,8.03
2018-06-04T10:05:10.558Z,8.58
2018-06-04T10:07:41.347Z,7.83
2018-06-04T10:10:12.562Z,13.74
2018-06-04T10:12:43.375Z,8.55
2018-06-04T10:15:14.235Z,6.20
2018-06-04T10:17:45.937Z,5.50
2018-06-04T10:20:16.297Z,5.67
2018-06-04T10:22:47.591Z,8.64
2018-06-04T10:25:18.312Z,5.72
2018-06-04T10:27:49.607Z,6.70
2018-06-04T10:30:20.665Z,5.28
2018-06-04T10:32:50.444Z,7.87
2018-06-04T10:35:21.255Z,5.35
2018-06-04T10:37:52.750Z,6.54
2018-06-04T10:40:23.250Z,5.45
2018-06-04T10:42:54.701Z,6.40
2018-06-04T10:45:25.241Z,6.25
2018-06-04T10:47:56.657Z,6.14
2018-06-04T10:50:27.213Z,5.20
2018-06-04T10:52:58.652Z,4.74
2018-06-04T10:55:29.317Z,4.67
2018-06-04T10:58:00.326Z,5.90
2018-06-04T11:00:31.204Z,4.53
2018-06-04T11:03:02.582Z,4.44
2018-06-04T11:05:33.269Z,5.72
2018-06-04T11:08:04.663Z,5.28
2018-06-04T11:10:34.394Z,4.33
2018-06-04T11:13:05.341Z,4.05
2018-06-04T11:15:36.242Z,5.15
2018-06-04T11:18:08.038Z,6.36
2018-06-04T11:20:38.749Z,6.37
2018-06-04T11:23:09.334Z,4.90
2018-06-04T11:25:39.689Z,7.10
2018-06-04T11:28:10.322Z,3.77
2018-06-04T11:30:41.663Z,4.30
2018-06-04T11:33:12.256Z,5.58
2018-06-04T11:35:43.568Z,4.30
2018-06-04T11:38:14.345Z,7.65
2018-06-04T11:40:45.281Z,6.95
2018-06-04T11:43:17.050Z,4.28
2018-06-04T11:45:47.453Z,5.75
2018-06-04T11:48:18.452Z,4.42
2018-06-04T11:50:49.346Z,6.25
2018-06-04T11:53:20.677Z,5.10
2018-06-04T11:55:51.406Z,5.78
2018-06-04T11:58:22.434Z,5.45
2018-06-04T12:00:54.375Z,4.90
2018-06-04T12:04:27.346Z,4.20
2018-06-04T12:06:57.227Z,3.97
2018-06-04T12:09:26.965Z,3.90
2018-06-04T12:11:56.959Z,4.13
2018-06-04T12:14:26.928Z,4.20
2018-06-04T12:16:57.543Z,5.73
2018-06-04T12:19:27.399Z,4.23
2018-06-04T12:21:57.665Z,5.90
2018-06-04T12:24:27.764Z,3.92
2018-06-04T12:26:57.908Z,4.05
2018-06-04T12:29:27.874Z,6.07
2018-06-04T12:31:57.991Z,6.50
2018-06-04T12:34:28.119Z,4.87
2018-06-04T12:36:57.983Z,4.30
2018-06-04T12:39:27.838Z,3.60
2018-06-04T12:41:58.045Z,5.97
2018-06-04T12:44:28.117Z,3.87
2018-06-04T12:46:58.145Z,5.27
2018-06-04T12:49:27.981Z,3.50
2018-06-04T12:51:57.799Z,5.87
2018-06-04T12:54:27.955Z,7.57
2018-06-04T12:56:57.943Z,3.63
2018-06-04T12:59:27.989Z,4.10
2018-06-04T13:01:57.899Z,3.87
2018-06-04T13:04:28.045Z,3.57
2018-06-04T13:06:58.314Z,3.53
2018-06-04T13:09:28.193Z,7.13
2018-06-04T13:11:58.006Z,3.80
2018-06-04T13:14:27.930Z,6.10
2018-06-04T13:16:58.019Z,3.40
2018-06-04T13:19:28.092Z,3.63
2018-06-04T13:22:04.133Z,4.97
2018-06-04T13:24:34.056Z,3.37
2018-06-04T13:27:04.295Z,4.50
2018-06-04T13:29:34.197Z,5.30
2018-06-04T13:32:04.138Z,3.93
2018-06-04T13:34:34.033Z,4.33
2018-06-04T13:37:03.961Z,6.27
2018-06-04T13:39:34.787Z,3.77
2018-06-04T13:42:05.554Z,9.68
2018-06-04T13:44:36.383Z,10.23
2018-06-04T13:47:06.285Z,4.80
2018-06-04T13:49:36.458Z,3.77
2018-06-04T13:52:07.353Z,6.20
2018-06-04T13:54:38.075Z,3.40
2018-06-04T13:57:07.958Z,6.70
2018-06-04T13:59:37.950Z,5.37
2018-06-04T14:02:08.142Z,3.37
2018-06-04T14:04:38.422Z,5.27
2018-06-04T14:07:08.325Z,6.00
2018-06-04T14:09:38.782Z,5.47
2018-06-04T14:12:09.365Z,4.53
2018-06-04T14:14:39.273Z,5.33
2018-06-04T14:17:09.206Z,4.37
2018-06-04T14:19:39.832Z,6.13
2018-06-04T14:22:09.946Z,5.90
2018-06-04T14:24:39.955Z,3.20
2018-06-04T14:27:10.294Z,4.70
2018-06-04T14:29:40.280Z,5.90
2018-06-04T14:32:10.474Z,5.00
2018-06-04T14:34:40.573Z,3.90
2018-06-04T14:37:10.400Z,2.97
2018-06-04T14:39:38.980Z,3.10
2018-06-04T14:42:09.041Z,5.90
2018-06-04T14:44:39.227Z,4.00
2018-06-04T14:47:09.301Z,3.00
2018-06-04T14:49:40.143Z,6.17
2018-06-04T14:52:10.753Z,2.80
2018-06-04T14:54:41.430Z,3.17
2018-06-04T14:57:11.682Z,4.05
2018-06-04T14:59:42.499Z,3.30
2018-06-04T15:02:12.590Z,4.07
2018-06-04T15:04:42.657Z,5.75
2018-06-04T15:07:14.245Z,3.30
2018-06-04T15:09:44.265Z,5.30
2018-06-04T15:12:14.378Z,4.17
2018-06-04T15:14:44.571Z,3.80
2018-06-04T15:17:15.460Z,6.00
2018-06-04T15:19:45.473Z,4.30
2018-06-04T15:22:15.840Z,4.43
2018-06-04T15:24:45.806Z,5.03
2018-06-04T15:27:16.495Z,5.15
2018-06-04T15:29:47.025Z,3.40
2018-06-04T15:32:21.777Z,3.53
2018-06-04T15:34:51.702Z,6.00
2018-06-04T15:37:22.053Z,4.85
2018-06-04T15:39:51.900Z,4.57
2018-06-04T15:42:21.601Z,5.63
2018-06-04T15:44:51.419Z,5.75
2018-06-04T15:47:21.118Z,5.63
2018-06-04T15:49:50.879Z,3.50
2018-06-04T15:52:21.061Z,5.54
2018-06-04T15:54:50.894Z,3.47
2018-06-04T15:57:20.441Z,3.27
2018-06-04T15:59:51.289Z,5.05
2018-06-04T16:02:22.809Z,7.02
2018-06-04T16:04:53.321Z,5.95
2018-06-04T16:07:24.428Z,3.94
2018-06-04T16:09:55.205Z,7.37
2018-06-04T16:12:26.442Z,4.14
2018-06-04T16:14:57.179Z,3.47
2018-06-04T16:17:28.402Z,3.46
2018-06-04T16:19:58.138Z,3.50
2018-06-04T16:22:29.329Z,3.52
2018-06-04T16:25:00.538Z,7.46
2018-06-04T16:27:31.070Z,7.70
2018-06-04T16:30:02.401Z,5.52
2018-06-04T16:32:33.358Z,3.67
2018-06-04T16:35:04.194Z,3.33
2018-06-04T16:37:35.565Z,5.70
2018-06-04T16:40:06.233Z,4.75
2018-06-04T16:42:37.453Z,6.58
2018-06-04T16:45:08.224Z,3.65
2018-06-04T16:47:39.518Z,3.20
2018-06-04T16:50:10.171Z,5.03
2018-06-04T16:52:41.105Z,5.75
2018-06-04T16:55:13.047Z,5.22
2018-06-04T16:57:43.348Z,6.75
2018-06-04T17:00:13.523Z,3.76
2018-06-04T17:02:44.865Z,5.35
2018-06-04T17:05:15.297Z,5.50
2018-06-04T17:07:46.984Z,3.88
2018-06-04T17:10:17.393Z,6.40
2018-06-04T17:12:47.043Z,5.05
2018-06-04T17:15:18.425Z,4.12
2018-06-04T17:17:49.097Z,4.12
2018-06-04T17:20:20.682Z,3.82
2018-06-04T17:22:51.109Z,5.00
2018-06-04T17:25:22.480Z,5.32
2018-06-04T17:27:53.154Z,5.95
2018-06-04T17:30:24.926Z,9.48
2018-06-04T17:32:55.628Z,5.80
2018-06-04T17:35:26.149Z,7.78
2018-06-04T17:37:57.987Z,4.94
2018-06-04T17:40:28.370Z,7.42
2018-06-04T17:42:59.419Z,5.60
2018-06-04T17:45:30.005Z,4.70
2018-06-04T17:48:01.000Z,8.13
2018-06-04T17:50:32.565Z,6.53
2018-06-04T17:53:03.034Z,3.72
2018-06-04T17:55:33.812Z,7.50
2018-06-04T17:58:05.873Z,9.20
2018-06-04T18:00:35.857Z,10.83
2018-06-04T18:03:06.919Z,9.60
2018-06-04T18:05:37.491Z,13.08
2018-06-04T18:08:08.725Z,9.25
2018-06-04T18:10:39.202Z,14.15
2018-06-04T18:13:10.530Z,9.50
2018-06-04T18:15:41.229Z,11.15
2018-06-04T18:18:12.489Z,10.14
2018-06-04T18:20:43.365Z,11.45
2018-06-04T18:23:16.625Z,18.52
2018-06-04T18:25:46.299Z,7.42
2018-06-04T18:28:16.528Z,6.44
2018-06-04T18:30:47.191Z,5.70
2018-06-04T18:33:17.622Z,5.80
2018-06-04T18:35:48.155Z,5.25
2018-06-04T18:38:19.393Z,6.90
2018-06-04T18:40:50.406Z,4.87
2018-06-04T18:43:20.113Z,4.45
2018-06-04T18:45:51.477Z,6.86
2018-06-04T18:48:22.244Z,6.75
2018-06-04T18:50:53.551Z,4.72
2018-06-04T18:53:24.707Z,5.60
2018-06-04T18:55:55.225Z,4.37
2018-06-04T18:58:26.513Z,5.08
2018-06-04T19:00:57.259Z,4.28
2018-06-04T19:03:28.521Z,5.40
2018-06-04T19:05:59.194Z,6.30
2018-06-04T19:08:31.029Z,9.90
2018-06-04T19:11:02.382Z,8.64
2018-06-04T19:13:32.927Z,5.12
2018-06-04T19:16:04.212Z,4.46
2018-06-04T19:18:34.554Z,5.10
2018-06-04T19:21:05.297Z,8.70
2018-06-04T19:23:37.005Z,7.84
2018-06-04T19:26:07.353Z,4.87
2018-06-04T19:31:16.401Z,9.83
2018-06-04T19:33:46.024Z,10.57
2018-06-04T19:36:16.072Z,8.23
2018-06-04T19:38:45.724Z,7.67
2018-06-04T19:41:15.356Z,7.47
2018-06-04T19:43:45.134Z,11.00
2018-06-04T19:46:15.445Z,9.65
2018-06-04T19:48:46.454Z,7.40
2018-06-04T19:51:17.127Z,7.10
2018-06-04T19:53:48.655Z,10.64
2018-06-04T19:56:19.303Z,7.20
2018-06-04T19:58:50.541Z,10.02
2018-06-04T20:01:21.721Z,7.08
2018-06-04T20:03:52.107Z,6.95
2018-06-04T20:06:23.646Z,7.66
2018-06-04T20:08:54.104Z,9.78
2018-06-04T20:11:25.325Z,9.98
2018-06-04T20:13:56.452Z,7.36
2018-06-04T20:16:27.033Z,8.83
2018-06-04T20:18:58.258Z,8.24
2018-06-04T20:21:28.384Z,8.90
2018-06-04T20:23:59.472Z,8.90
2018-06-04T20:26:30.141Z,8.00
2018-06-04T20:29:01.416Z,10.26
2018-06-04T20:31:32.726Z,9.34
2018-06-04T20:34:03.101Z,6.60
2018-06-04T20:36:34.383Z,7.42
2018-06-04T20:39:07.279Z,7.00
2018-06-04T20:41:37.081Z,8.97
2018-06-04T20:44:07.648Z,7.08
2018-06-04T20:46:38.073Z,7.28
2018-06-04T20:49:09.325Z,7.52
2018-06-04T20:51:39.123Z,7.90
2018-06-04T20:54:10.582Z,9.32
2018-06-04T20:56:40.990Z,7.20
2018-06-04T20:59:12.238Z,9.52
2018-06-04T21:01:43.486Z,9.86
2018-06-04T21:04:13.114Z,8.35
2018-06-04T21:06:44.295Z,7.88
2018-06-04T21:09:15.442Z,8.40
2018-06-04T21:11:46.047Z,7.33
2018-06-04T21:14:17.309Z,7.88
2018-06-04T21:16:48.325Z,7.54
2018-06-04T21:19:19.455Z,8.02
2018-06-04T21:21:50.041Z,8.28
2018-06-04T21:24:21.413Z,9.94
2018-06-04T21:26:51.021Z,8.00
2018-06-04T21:29:22.265Z,7.74
2018-06-04T21:31:52.550Z,9.85
2018-06-04T21:34:23.144Z,10.08
2018-06-04T21:36:54.388Z,8.04
2018-06-04T21:39:25.413Z,8.36
2018-06-04T21:41:56.022Z,7.72
2018-06-04T21:44:27.282Z,8.14
2018-06-04T21:46:58.333Z,12.56
2018-06-04T21:49:29.587Z,9.94
2018-06-04T21:52:00.086Z,9.73
2018-06-04T21:54:31.424Z,10.44
2018-06-04T21:57:02.032Z,9.45
2018-06-04T21:59:33.381Z,13.20
2018-06-04T22:02:04.501Z,9.82
2018-06-04T22:04:35.122Z,10.38
2018-06-04T22:07:06.450Z,12.28
2018-06-04T22:09:37.108Z,10.78
2018-06-04T22:12:08.347Z,12.02
2018-06-04T22:14:39.500Z,9.10
2018-06-04T22:17:10.166Z,9.28
2018-06-04T22:19:41.757Z,8.66
2018-06-04T22:22:12.025Z,9.75
2018-06-04T22:24:43.307Z,11.38
2018-06-04T22:27:14.465Z,9.34
2018-06-04T22:29:45.141Z,8.38
2018-06-04T22:32:16.713Z,8.96
2018-06-04T22:34:47.138Z,8.65
2018-06-04T22:37:18.330Z,9.44
2018-06-04T22:39:49.366Z,8.84
2018-06-04T22:42:20.046Z,11.50
2018-06-04T22:44:51.295Z,8.58
2018-06-04T22:47:21.363Z,10.33
2018-06-04T22:49:52.546Z,7.92
2018-06-04T22:52:23.024Z,8.78
2018-06-04T22:54:54.365Z,11.04
2018-06-04T22:57:25.036Z,10.15
2018-06-04T22:59:56.294Z,10.06
2018-06-04T23:02:27.430Z,9.36
2018-06-04T23:04:58.138Z,9.68
2018-06-04T23:07:29.358Z,9.40
2018-06-04T23:10:00.066Z,8.80
2018-06-04T23:12:31.259Z,9.12
2018-06-04T23:15:02.430Z,8.62
2018-06-04T23:17:33.109Z,11.93
2018-06-04T23:20:04.478Z,12.64
2018-06-04T23:22:35.200Z,10.03
2018-06-04T23:25:06.450Z,10.26
2018-06-04T23:27:36.133Z,10.70
2018-06-04T23:30:07.414Z,9.60
2018-06-04T23:32:38.381Z,9.66
2018-06-04T23:35:09.420Z,11.38
2018-06-04T23:37:40.060Z,9.03
2018-06-04T23:40:11.302Z,9.10
2018-06-04T23:42:42.392Z,9.28
2018-06-04T23:45:13.038Z,9.05
2018-06-04T23:47:44.278Z,9.70
2018-06-04T23:50:15.685Z,9.34
2018-06-04T23:52:46.298Z,9.65
2018-06-04T23:55:17.906Z,9.90
2018-06-04T23:57:48.334Z,9.48
